Brian Lee Teste — WDH2656 — position and weather

sailwx.info

Track history (hours):
 
Tides and Currents Weather Stations Pressure Air Temp Water Temp Dewpoint Dewpoint Depression Visibility Wind Speed Wind Dir Waves Ship Positions

Brian Lee Teste

Owner: Genesis Marine, LLC, Houston, TX. More information available from US FCC via Universal Licensing System and Coast Guard Vessel Documentation Center.

Last reported at 2018-Jun-14 01:01 UTC. Time now 2018-Jun-21 16:21 UTC.
Position N 29°56' W 090°19'.

Length 23 m; draft 3 m.

Type: Towing. MMSI: 367599850.

Date/timePositionNaut miles runAvg speedWind from/ knotsBaromVisibWave heightAir tempDewpointWater temp
2018-Jun-14 01:01N 29°56' W 090°19'0 3.1
2018-Jun-14 01:00N 29°56' W 090°19'5 2.2
2018-Jun-13 22:52N 29°58' W 090°15'0 0.0
2018-Jun-13 22:28N 29°58' W 090°15'27 1.3
2018-Jun-13 01:29N 29°33' W 090°27'4 7.8
2018-Jun-13 01:00N 29°34' W 090°31'4 7.6
2018-Jun-13 00:30N 29°35' W 090°35'3 6.2
2018-Jun-13 00:00N 29°36' W 090°39'3 6.8
2018-Jun-12 23:30N 29°36' W 090°43'3 6.3
2018-Jun-12 23:00N 29°33' W 090°42'0 0.9
2018-Jun-12 22:30N 29°34' W 090°42'0 0.0
2018-Jun-12 22:00N 29°34' W 090°42'0 0.0
2018-Jun-12 21:30N 29°34' W 090°42'0 0.0
2018-Jun-12 21:00N 29°34' W 090°42'0 0.0
2018-Jun-12 20:30N 29°34' W 090°42'3 5.2
2018-Jun-12 20:00N 29°31' W 090°42'2 3.3
2018-Jun-12 19:30N 29°33' W 090°42'1 1.8
2018-Jun-12 19:00N 29°34' W 090°42'0 0.0
2018-Jun-12 18:30N 29°34' W 090°42'0 0.0
2018-Jun-12 18:00N 29°34' W 090°42'0 0.0
2018-Jun-12 17:30N 29°34' W 090°42'0 0.0
2018-Jun-12 17:00N 29°34' W 090°42'  
2018-Jun-08 21:17N 29°34' W 090°42'0 0.0
2018-Jun-08 20:59N 29°34' W 090°42'0 0.0
2018-Jun-08 20:30N 29°34' W 090°42'0 0.0
2018-Jun-08 19:56N 29°34' W 090°42'0 0.0
2018-Jun-08 19:15N 29°34' W 090°42'0 0.0
2018-Jun-08 19:00N 29°34' W 090°42'0 0.0
2018-Jun-08 01:17N 29°34' W 090°42'1 3.7
2018-Jun-08 01:00N 29°33' W 090°42'1 1.1
2018-Jun-08 00:30N 29°32' W 090°42'2 3.2
2018-Jun-08 00:00N 29°34' W 090°42'0 0.0
2018-Jun-07 23:30N 29°34' W 090°42'0 0.0
2018-Jun-07 23:00N 29°34' W 090°42'0 0.0
2018-Jun-07 22:30N 29°34' W 090°42'0 0.0
2018-Jun-07 22:00N 29°34' W 090°42'0 0.0
2018-Jun-07 21:30N 29°34' W 090°42'0 0.0
2018-Jun-07 21:00N 29°34' W 090°42'0 0.0
2018-Jun-07 20:30N 29°34' W 090°42'0 0.0
2018-Jun-07 20:00N 29°34' W 090°42'0 0.0
2018-Jun-07 12:50N 29°34' W 090°42'0 0.0
2018-Jun-07 12:31N 29°34' W 090°42'0 0.0
2018-Jun-07 12:01N 29°34' W 090°42'0 0.0
2018-Jun-07 11:31N 29°34' W 090°42'0 0.1
2018-Jun-07 11:01N 29°34' W 090°42'0 0.0
2018-Jun-07 10:30N 29°34' W 090°42'0 0.0
2018-Jun-07 10:01N 29°34' W 090°42'0 0.0
2018-Jun-07 09:30N 29°34' W 090°42'0 0.0
2018-Jun-07 09:01N 29°34' W 090°42'0 0.0
2018-Jun-07 08:29N 29°34' W 090°42'0 0.0
2018-Jun-07 08:01N 29°34' W 090°42'0 0.0
2018-Jun-07 07:31N 29°34' W 090°42'0 0.0
2018-Jun-07 07:01N 29°34' W 090°42'0 0.0
2018-Jun-07 06:31N 29°34' W 090°42'0 0.0
2018-Jun-07 06:01N 29°34' W 090°42'0 0.0
2018-Jun-07 05:31N 29°34' W 090°42'0 0.0
2018-Jun-07 05:01N 29°34' W 090°42'0 0.0
2018-Jun-07 04:30N 29°34' W 090°42'0 0.0
2018-Jun-07 04:01N 29°34' W 090°42'0 0.0
2018-Jun-07 03:31N 29°34' W 090°42'0 0.0
2018-Jun-07 03:00N 29°34' W 090°42'0 0.0
2018-Jun-07 02:30N 29°34' W 090°42'0 0.0
2018-Jun-07 02:01N 29°34' W 090°42'0 0.0
2018-Jun-07 01:30N 29°34' W 090°42'0 0.0
2018-Jun-07 01:01N 29°34' W 090°42'0 0.0
2018-Jun-07 00:31N 29°34' W 090°42'0 0.0
2018-Jun-07 00:01N 29°34' W 090°42'0 0.0
2018-Jun-06 23:31N 29°34' W 090°42'0 0.0
2018-Jun-06 23:00N 29°34' W 090°42'0 0.0
2018-Jun-06 22:31N 29°34' W 090°42'0 0.0
2018-Jun-06 22:00N 29°34' W 090°42'0 0.0
2018-Jun-06 21:31N 29°34' W 090°42'0 0.0
2018-Jun-06 21:01N 29°34' W 090°42'2 3.9
2018-Jun-06 20:31N 29°32' W 090°42'1 0.9
2018-Jun-06 19:57N 29°31' W 090°42'2 5.4
2018-Jun-06 19:30N 29°34' W 090°42'0 0.0
2018-Jun-06 19:01N 29°34' W 090°42'0 0.2
2018-Jun-06 18:29N 29°34' W 090°42'0 0.0
2018-Jun-06 18:00N 29°34' W 090°42'0 0.0
2018-Jun-06 15:02N 29°34' W 090°42'0 0.0
2018-Jun-06 15:00N 29°34' W 090°42'0 0.0
2018-Jun-06 14:30N 29°34' W 090°42'0 0.0
2018-Jun-06 14:00N 29°34' W 090°42'0 0.0
2018-Jun-06 13:30N 29°34' W 090°42'0 0.0
2018-Jun-06 13:00N 29°34' W 090°42'0 0.0
2018-Jun-06 12:30N 29°34' W 090°42'0 0.0
2018-Jun-06 12:00N 29°34' W 090°42'0 0.0
2018-Jun-06 11:30N 29°34' W 090°42'0 0.0
2018-Jun-06 11:00N 29°34' W 090°42'0 0.0
2018-Jun-06 10:30N 29°34' W 090°42'0 0.0
2018-Jun-06 10:00N 29°34' W 090°42'0 0.0
2018-Jun-06 09:30N 29°34' W 090°42'0 0.0
2018-Jun-06 09:00N 29°34' W 090°42'0 0.0
2018-Jun-06 08:30N 29°34' W 090°42'0 0.0
2018-Jun-06 08:00N 29°34' W 090°42'0 0.0
2018-Jun-06 07:30N 29°34' W 090°42'0 0.0
2018-Jun-06 07:00N 29°34' W 090°42'0 0.0
2018-Jun-06 06:30N 29°34' W 090°42'0 0.0
2018-Jun-06 06:00N 29°34' W 090°42'0 0.0
2018-Jun-06 05:30N 29°34' W 090°42'0 0.0
2018-Jun-06 05:00N 29°34' W 090°42'0 0.0
2018-Jun-06 04:30N 29°34' W 090°42'0 0.0
2018-Jun-06 04:00N 29°34' W 090°42'0 0.0
2018-Jun-06 03:30N 29°34' W 090°42'0 0.0
2018-Jun-06 03:00N 29°34' W 090°42'0 0.0
2018-Jun-06 02:30N 29°34' W 090°42'0 0.0
2018-Jun-06 02:00N 29°34' W 090°42'0 0.0
2018-Jun-06 01:30N 29°34' W 090°42'0 0.0
2018-Jun-06 01:00N 29°34' W 090°42'0 0.0
2018-Jun-06 00:30N 29°34' W 090°42'0 0.0
2018-Jun-05 23:59N 29°34' W 090°42'0 0.0
2018-Jun-05 23:28N 29°34' W 090°42'0 0.0
2018-Jun-05 23:00N 29°34' W 090°42'0 0.0
2018-Jun-05 22:30N 29°34' W 090°42'0 0.0
2018-Jun-05 22:00N 29°34' W 090°42'0 0.0
2018-Jun-05 21:30N 29°34' W 090°42'0 0.0
2018-Jun-05 21:00N 29°34' W 090°42'0 0.0
2018-Jun-05 20:30N 29°34' W 090°42'0 0.0
2018-Jun-05 20:00N 29°34' W 090°42'0 0.0
2018-Jun-05 19:28N 29°34' W 090°42'0 0.0
2018-Jun-05 19:00N 29°34' W 090°42'0 0.0
2018-Jun-05 18:30N 29°34' W 090°42'0 0.0
2018-Jun-05 18:00N 29°34' W 090°42'0 0.0
2018-Jun-05 17:28N 29°34' W 090°42'0 0.0
2018-Jun-05 17:00N 29°34' W 090°42'0 0.0
2018-Jun-05 16:30N 29°34' W 090°42'0 0.0
2018-Jun-05 16:00N 29°34' W 090°42'0 0.0
2018-Jun-05 15:30N 29°34' W 090°42'0 0.0
2018-Jun-05 15:00N 29°34' W 090°42'0 0.0
2018-Jun-05 14:30N 29°34' W 090°42'0 0.0
2018-Jun-05 14:00N 29°34' W 090°42'0 0.0
2018-Jun-05 13:30N 29°34' W 090°42'0 0.0
2018-Jun-05 13:00N 29°34' W 090°42'0 0.0
2018-Jun-05 12:30N 29°34' W 090°42'0 0.0
2018-Jun-05 12:00N 29°34' W 090°42'0 0.0
2018-Jun-05 11:30N 29°34' W 090°42'0 0.0
2018-Jun-05 11:00N 29°34' W 090°42'0 0.0
2018-Jun-05 10:30N 29°34' W 090°42'0 0.0
2018-Jun-05 10:00N 29°34' W 090°42'0 0.0
2018-Jun-05 09:30N 29°34' W 090°42'0 0.0
2018-Jun-05 09:00N 29°34' W 090°42'0 0.0
2018-Jun-05 08:30N 29°34' W 090°42'0 0.0
2018-Jun-05 08:00N 29°34' W 090°42'0 0.0
2018-Jun-05 07:30N 29°34' W 090°42'0 0.0
2018-Jun-05 07:00N 29°34' W 090°42'0 0.0
2018-Jun-05 06:30N 29°34' W 090°42'0 0.0
2018-Jun-05 06:00N 29°34' W 090°42'0 0.0
2018-Jun-05 05:30N 29°34' W 090°42'0 0.0
2018-Jun-05 05:00N 29°34' W 090°42'0 0.0
2018-Jun-05 04:30N 29°34' W 090°42'0 0.0
2018-Jun-05 04:00N 29°34' W 090°42'0 0.0
2018-Jun-05 03:30N 29°34' W 090°42'0 0.0
2018-Jun-05 03:00N 29°34' W 090°42'0 0.0
2018-Jun-05 02:30N 29°34' W 090°42'0 0.0
2018-Jun-05 02:00N 29°34' W 090°42'0 0.0
2018-Jun-05 01:30N 29°34' W 090°42'0 0.0
2018-Jun-05 01:00N 29°34' W 090°42'0 0.0
2018-Jun-05 00:30N 29°34' W 090°42'0 0.0
2018-Jun-05 00:00N 29°34' W 090°42'0 0.0
2018-Jun-04 23:30N 29°34' W 090°42'0 0.0
2018-Jun-04 23:00N 29°34' W 090°42'0 0.0
2018-Jun-04 22:30N 29°34' W 090°42'0 0.0
2018-Jun-04 22:00N 29°34' W 090°42'0 0.0
2018-Jun-04 21:30N 29°34' W 090°42'0 0.0
2018-Jun-04 21:00N 29°34' W 090°42'0 0.0
2018-Jun-04 20:29N 29°34' W 090°42'0 0.0
2018-Jun-04 20:00N 29°34' W 090°42'0 0.0
2018-Jun-04 19:29N 29°34' W 090°42'0 0.0
2018-Jun-04 19:00N 29°34' W 090°42'0 0.0
2018-Jun-04 18:30N 29°34' W 090°42'0 0.0
2018-Jun-04 18:00N 29°34' W 090°42'0 0.0
2018-Jun-04 17:30N 29°34' W 090°42'0 0.0
2018-Jun-04 17:00N 29°34' W 090°42'0 0.0
2018-Jun-04 16:30N 29°34' W 090°42'0 0.0
2018-Jun-04 16:00N 29°34' W 090°42'0 0.0
2018-Jun-04 15:30N 29°34' W 090°42'0 0.0
2018-Jun-04 15:00N 29°34' W 090°42'0 0.0
2018-Jun-04 14:31N 29°34' W 090°42'0 0.0
2018-Jun-04 14:00N 29°34' W 090°42'0 0.0
2018-Jun-04 13:30N 29°34' W 090°42'  
Track history (hours):
 
Tides and Currents Weather Stations Pressure Air Temp Water Temp Dewpoint Dewpoint Depression Visibility Wind Speed Wind Dir Waves Ship Positions

Brian Lee Teste

Owner: Genesis Marine, LLC, Houston, TX. More information available from US FCC via Universal Licensing System and Coast Guard Vessel Documentation Center.

Last reported at 2018-Jun-14 01:01 UTC. Time now 2018-Jun-21 16:21 UTC.
Position N 29°56' W 090°19'.

Length 23 m; draft 3 m.

Type: Towing. MMSI: 367599850.

Date/timePositionNaut miles runAvg speedWind from/ knotsBaromVisibWave heightAir tempDewpointWater temp
2018-Jun-14 01:01N 29°56' W 090°19'0 3.1
2018-Jun-14 01:00N 29°56' W 090°19'5 2.2
2018-Jun-13 22:52N 29°58' W 090°15'0 0.0
2018-Jun-13 22:28N 29°58' W 090°15'27 1.3
2018-Jun-13 01:29N 29°33' W 090°27'4 7.8
2018-Jun-13 01:00N 29°34' W 090°31'4 7.6
2018-Jun-13 00:30N 29°35' W 090°35'3 6.2
2018-Jun-13 00:00N 29°36' W 090°39'3 6.8
2018-Jun-12 23:30N 29°36' W 090°43'3 6.3
2018-Jun-12 23:00N 29°33' W 090°42'0 0.9
2018-Jun-12 22:30N 29°34' W 090°42'0 0.0
2018-Jun-12 22:00N 29°34' W 090°42'0 0.0
2018-Jun-12 21:30N 29°34' W 090°42'0 0.0
2018-Jun-12 21:00N 29°34' W 090°42'0 0.0
2018-Jun-12 20:30N 29°34' W 090°42'3 5.2
2018-Jun-12 20:00N 29°31' W 090°42'2 3.3
2018-Jun-12 19:30N 29°33' W 090°42'1 1.8
2018-Jun-12 19:00N 29°34' W 090°42'0 0.0
2018-Jun-12 18:30N 29°34' W 090°42'0 0.0
2018-Jun-12 18:00N 29°34' W 090°42'0 0.0
2018-Jun-12 17:30N 29°34' W 090°42'0 0.0
2018-Jun-12 17:00N 29°34' W 090°42'  
2018-Jun-08 21:17N 29°34' W 090°42'0 0.0
2018-Jun-08 20:59N 29°34' W 090°42'0 0.0
2018-Jun-08 20:30N 29°34' W 090°42'0 0.0
2018-Jun-08 19:56N 29°34' W 090°42'0 0.0
2018-Jun-08 19:15N 29°34' W 090°42'0 0.0
2018-Jun-08 19:00N 29°34' W 090°42'0 0.0
2018-Jun-08 01:17N 29°34' W 090°42'1 3.7
2018-Jun-08 01:00N 29°33' W 090°42'1 1.1
2018-Jun-08 00:30N 29°32' W 090°42'2 3.2
2018-Jun-08 00:00N 29°34' W 090°42'0 0.0
2018-Jun-07 23:30N 29°34' W 090°42'0 0.0
2018-Jun-07 23:00N 29°34' W 090°42'0 0.0
2018-Jun-07 22:30N 29°34' W 090°42'0 0.0
2018-Jun-07 22:00N 29°34' W 090°42'0 0.0
2018-Jun-07 21:30N 29°34' W 090°42'0 0.0
2018-Jun-07 21:00N 29°34' W 090°42'0 0.0
2018-Jun-07 20:30N 29°34' W 090°42'0 0.0
2018-Jun-07 20:00N 29°34' W 090°42'0 0.0
2018-Jun-07 12:50N 29°34' W 090°42'0 0.0
2018-Jun-07 12:31N 29°34' W 090°42'0 0.0
2018-Jun-07 12:01N 29°34' W 090°42'0 0.0
2018-Jun-07 11:31N 29°34' W 090°42'0 0.1
2018-Jun-07 11:01N 29°34' W 090°42'0 0.0
2018-Jun-07 10:30N 29°34' W 090°42'0 0.0
2018-Jun-07 10:01N 29°34' W 090°42'0 0.0
2018-Jun-07 09:30N 29°34' W 090°42'0 0.0
2018-Jun-07 09:01N 29°34' W 090°42'0 0.0
2018-Jun-07 08:29N 29°34' W 090°42'0 0.0
2018-Jun-07 08:01N 29°34' W 090°42'0 0.0
2018-Jun-07 07:31N 29°34' W 090°42'0 0.0
2018-Jun-07 07:01N 29°34' W 090°42'0 0.0
2018-Jun-07 06:31N 29°34' W 090°42'0 0.0
2018-Jun-07 06:01N 29°34' W 090°42'0 0.0
2018-Jun-07 05:31N 29°34' W 090°42'0 0.0
2018-Jun-07 05:01N 29°34' W 090°42'0 0.0
2018-Jun-07 04:30N 29°34' W 090°42'0 0.0
2018-Jun-07 04:01N 29°34' W 090°42'0 0.0
2018-Jun-07 03:31N 29°34' W 090°42'0 0.0
2018-Jun-07 03:00N 29°34' W 090°42'0 0.0
2018-Jun-07 02:30N 29°34' W 090°42'0 0.0
2018-Jun-07 02:01N 29°34' W 090°42'0 0.0
2018-Jun-07 01:30N 29°34' W 090°42'0 0.0
2018-Jun-07 01:01N 29°34' W 090°42'0 0.0
2018-Jun-07 00:31N 29°34' W 090°42'0 0.0
2018-Jun-07 00:01N 29°34' W 090°42'0 0.0
2018-Jun-06 23:31N 29°34' W 090°42'0 0.0
2018-Jun-06 23:00N 29°34' W 090°42'0 0.0
2018-Jun-06 22:31N 29°34' W 090°42'0 0.0
2018-Jun-06 22:00N 29°34' W 090°42'0 0.0
2018-Jun-06 21:31N 29°34' W 090°42'0 0.0
2018-Jun-06 21:01N 29°34' W 090°42'2 3.9
2018-Jun-06 20:31N 29°32' W 090°42'1 0.9
2018-Jun-06 19:57N 29°31' W 090°42'2 5.4
2018-Jun-06 19:30N 29°34' W 090°42'0 0.0
2018-Jun-06 19:01N 29°34' W 090°42'0 0.2
2018-Jun-06 18:29N 29°34' W 090°42'0 0.0
2018-Jun-06 18:00N 29°34' W 090°42'0 0.0
2018-Jun-06 15:02N 29°34' W 090°42'0 0.0
2018-Jun-06 15:00N 29°34' W 090°42'0 0.0
2018-Jun-06 14:30N 29°34' W 090°42'0 0.0
2018-Jun-06 14:00N 29°34' W 090°42'0 0.0
2018-Jun-06 13:30N 29°34' W 090°42'0 0.0
2018-Jun-06 13:00N 29°34' W 090°42'0 0.0
2018-Jun-06 12:30N 29°34' W 090°42'0 0.0
2018-Jun-06 12:00N 29°34' W 090°42'0 0.0
2018-Jun-06 11:30N 29°34' W 090°42'0 0.0
2018-Jun-06 11:00N 29°34' W 090°42'0 0.0
2018-Jun-06 10:30N 29°34' W 090°42'0 0.0
2018-Jun-06 10:00N 29°34' W 090°42'0 0.0
2018-Jun-06 09:30N 29°34' W 090°42'0 0.0
2018-Jun-06 09:00N 29°34' W 090°42'0 0.0
2018-Jun-06 08:30N 29°34' W 090°42'0 0.0
2018-Jun-06 08:00N 29°34' W 090°42'0 0.0
2018-Jun-06 07:30N 29°34' W 090°42'0 0.0
2018-Jun-06 07:00N 29°34' W 090°42'0 0.0
2018-Jun-06 06:30N 29°34' W 090°42'0 0.0
2018-Jun-06 06:00N 29°34' W 090°42'0 0.0
2018-Jun-06 05:30N 29°34' W 090°42'0 0.0
2018-Jun-06 05:00N 29°34' W 090°42'0 0.0
2018-Jun-06 04:30N 29°34' W 090°42'0 0.0
2018-Jun-06 04:00N 29°34' W 090°42'0 0.0
2018-Jun-06 03:30N 29°34' W 090°42'0 0.0
2018-Jun-06 03:00N 29°34' W 090°42'0 0.0
2018-Jun-06 02:30N 29°34' W 090°42'0 0.0
2018-Jun-06 02:00N 29°34' W 090°42'0 0.0
2018-Jun-06 01:30N 29°34' W 090°42'0 0.0
2018-Jun-06 01:00N 29°34' W 090°42'0 0.0
2018-Jun-06 00:30N 29°34' W 090°42'0 0.0
2018-Jun-05 23:59N 29°34' W 090°42'0 0.0
2018-Jun-05 23:28N 29°34' W 090°42'0 0.0
2018-Jun-05 23:00N 29°34' W 090°42'0 0.0
2018-Jun-05 22:30N 29°34' W 090°42'0 0.0
2018-Jun-05 22:00N 29°34' W 090°42'0 0.0
2018-Jun-05 21:30N 29°34' W 090°42'0 0.0
2018-Jun-05 21:00N 29°34' W 090°42'0 0.0
2018-Jun-05 20:30N 29°34' W 090°42'0 0.0
2018-Jun-05 20:00N 29°34' W 090°42'0 0.0
2018-Jun-05 19:28N 29°34' W 090°42'0 0.0
2018-Jun-05 19:00N 29°34' W 090°42'0 0.0
2018-Jun-05 18:30N 29°34' W 090°42'0 0.0
2018-Jun-05 18:00N 29°34' W 090°42'0 0.0
2018-Jun-05 17:28N 29°34' W 090°42'0 0.0
2018-Jun-05 17:00N 29°34' W 090°42'0 0.0
2018-Jun-05 16:30N 29°34' W 090°42'0 0.0
2018-Jun-05 16:00N 29°34' W 090°42'0 0.0
2018-Jun-05 15:30N 29°34' W 090°42'0 0.0
2018-Jun-05 15:00N 29°34' W 090°42'0 0.0
2018-Jun-05 14:30N 29°34' W 090°42'0 0.0
2018-Jun-05 14:00N 29°34' W 090°42'0 0.0
2018-Jun-05 13:30N 29°34' W 090°42'0 0.0
2018-Jun-05 13:00N 29°34' W 090°42'0 0.0
2018-Jun-05 12:30N 29°34' W 090°42'0 0.0
2018-Jun-05 12:00N 29°34' W 090°42'0 0.0
2018-Jun-05 11:30N 29°34' W 090°42'0 0.0
2018-Jun-05 11:00N 29°34' W 090°42'0 0.0
2018-Jun-05 10:30N 29°34' W 090°42'0 0.0
2018-Jun-05 10:00N 29°34' W 090°42'0 0.0
2018-Jun-05 09:30N 29°34' W 090°42'0 0.0
2018-Jun-05 09:00N 29°34' W 090°42'0 0.0
2018-Jun-05 08:30N 29°34' W 090°42'0 0.0
2018-Jun-05 08:00N 29°34' W 090°42'0 0.0
2018-Jun-05 07:30N 29°34' W 090°42'0 0.0
2018-Jun-05 07:00N 29°34' W 090°42'0 0.0
2018-Jun-05 06:30N 29°34' W 090°42'0 0.0
2018-Jun-05 06:00N 29°34' W 090°42'0 0.0
2018-Jun-05 05:30N 29°34' W 090°42'0 0.0
2018-Jun-05 05:00N 29°34' W 090°42'0 0.0
2018-Jun-05 04:30N 29°34' W 090°42'0 0.0
2018-Jun-05 04:00N 29°34' W 090°42'0 0.0
2018-Jun-05 03:30N 29°34' W 090°42'0 0.0
2018-Jun-05 03:00N 29°34' W 090°42'0 0.0
2018-Jun-05 02:30N 29°34' W 090°42'0 0.0
2018-Jun-05 02:00N 29°34' W 090°42'0 0.0
2018-Jun-05 01:30N 29°34' W 090°42'0 0.0
2018-Jun-05 01:00N 29°34' W 090°42'0 0.0
2018-Jun-05 00:30N 29°34' W 090°42'0 0.0
2018-Jun-05 00:00N 29°34' W 090°42'0 0.0
2018-Jun-04 23:30N 29°34' W 090°42'0 0.0
2018-Jun-04 23:00N 29°34' W 090°42'0 0.0
2018-Jun-04 22:30N 29°34' W 090°42'0 0.0
2018-Jun-04 22:00N 29°34' W 090°42'0 0.0
2018-Jun-04 21:30N 29°34' W 090°42'0 0.0
2018-Jun-04 21:00N 29°34' W 090°42'0 0.0
2018-Jun-04 20:29N 29°34' W 090°42'0 0.0
2018-Jun-04 20:00N 29°34' W 090°42'0 0.0
2018-Jun-04 19:29N 29°34' W 090°42'0 0.0
2018-Jun-04 19:00N 29°34' W 090°42'0 0.0
2018-Jun-04 18:30N 29°34' W 090°42'0 0.0
2018-Jun-04 18:00N 29°34' W 090°42'0 0.0
2018-Jun-04 17:30N 29°34' W 090°42'0 0.0
2018-Jun-04 17:00N 29°34' W 090°42'0 0.0
2018-Jun-04 16:30N 29°34' W 090°42'0 0.0
2018-Jun-04 16:00N 29°34' W 090°42'0 0.0
2018-Jun-04 15:30N 29°34' W 090°42'0 0.0
2018-Jun-04 15:00N 29°34' W 090°42'0 0.0
2018-Jun-04 14:31N 29°34' W 090°42'0 0.0
2018-Jun-04 14:00N 29°34' W 090°42'0 0.0
2018-Jun-04 13:30N 29°34' W 090°42'  

Dump ship's entire track history